Time;durP1;ratioP1;P1;durP2;ratioP2;P2;SDS_P1;SDS_P2;PMS_P1;PMS_P2;Temp;Humidity;BMP_temperature;BMP_pressure;BME280_temperature;BME280_humidity;BME280_pressure;Samples;Min_cycle;Max_cycle;Signal;HPM_P1;HPM_P2
2022/08/06 00:02:27;;;;;;;3.30;3.10;;;30.20;63.30;;;;;;5071564;28;20501;-71
2022/08/06 00:04:59;;;;;;;4.33;3.93;;;30.30;63.20;;;;;;5071177;28;20492;-71
2022/08/06 00:07:28;;;;;;;3.13;2.87;;;30.40;63.00;;;;;;5071560;28;20480;-71
2022/08/06 00:10:16;;;;;;;3.93;3.67;;;30.50;62.40;;;;;;5071080;28;20441;-71
2022/08/06 00:12:44;;;;;;;3.00;2.80;;;30.60;62.40;;;;;;5061772;28;20480;-71
2022/08/06 00:15:19;;;;;;;3.10;2.90;;;30.60;62.40;;;;;;5091618;28;20428;-71
2022/08/06 00:18:07;;;;;;;2.63;2.43;;;30.70;61.70;;;;;;5092092;28;20426;-71
2022/08/06 00:20:40;;;;;;;3.00;2.10;;;30.20;61.90;;;;;;5091910;28;20432;-71
2022/08/06 00:23:10;;;;;;;3.87;3.37;;;29.70;62.70;;;;;;5091362;28;20455;-71
2022/08/06 00:25:45;;;;;;;3.10;2.90;;;29.80;63.80;;;;;;5092360;28;20430;-71
2022/08/06 00:28:21;;;;;;;3.10;2.80;;;29.90;63.60;;;;;;5089440;28;20903;-71
2022/08/06 00:31:00;;;;;;;3.33;3.03;;;30.00;63.60;;;;;;5051199;28;20430;-71
2022/08/06 00:33:39;;;;;;;3.07;2.83;;;30.20;63.30;;;;;;5051151;28;20508;-71
2022/08/06 00:36:19;;;;;;;2.70;2.60;;;30.30;62.80;;;;;;5084573;28;20502;-71
2022/08/06 00:38:52;;;;;;;2.67;2.50;;;30.50;62.40;;;;;;5075735;28;20449;-71
2022/08/06 00:41:21;;;;;;;2.30;2.20;;;30.60;62.30;;;;;;5074856;28;20464;-71
2022/08/06 00:43:54;;;;;;;2.40;2.17;;;30.70;62.10;;;;;;5088653;28;20448;-71
2022/08/06 00:46:24;;;;;;;2.70;2.50;;;30.70;62.10;;;;;;5095476;28;20425;-71
2022/08/06 00:48:52;;;;;;;2.40;2.30;;;30.60;62.10;;;;;;5079421;28;20855;-71
2022/08/06 00:51:24;;;;;;;2.60;2.27;;;30.60;62.20;;;;;;5091354;28;20480;-71
2022/08/06 00:54:10;;;;;;;2.90;2.67;;;30.50;62.20;;;;;;5073960;28;20433;-71
2022/08/06 00:56:38;;;;;;;2.33;2.17;;;30.50;62.10;;;;;;5056827;28;20465;-71
2022/08/06 00:59:09;;;;;;;2.37;2.27;;;30.50;62.30;;;;;;5077152;28;20480;-71
2022/08/06 01:01:39;;;;;;;2.30;2.20;;;30.40;62.20;;;;;;5070247;28;20474;-71
2022/08/06 01:04:18;;;;;;;2.60;2.40;;;30.40;62.30;;;;;;5054278;28;20436;-71
2022/08/06 01:06:47;;;;;;;2.93;2.73;;;30.20;62.20;;;;;;5055398;28;20492;-71
2022/08/06 01:09:25;;;;;;;3.00;2.77;;;30.10;62.00;;;;;;5074571;28;20857;-71
2022/08/06 01:11:53;;;;;;;2.70;2.50;;;30.00;61.60;;;;;;5094510;28;20476;-71
2022/08/06 01:14:27;;;;;;;3.10;2.90;;;29.90;61.60;;;;;;5094578;28;20424;-71
2022/08/06 01:17:14;;;;;;;3.00;2.70;;;29.90;61.60;;;;;;5094668;28;20452;-71
2022/08/06 01:19:57;;;;;;;2.30;2.20;;;29.90;61.70;;;;;;5065210;28;20459;-71
2022/08/06 01:23:09;;;;;;;2.60;2.50;;;29.90;61.60;;;;;;5054567;28;20470;-71
2022/08/06 01:26:00;;;;;;;3.40;3.20;;;30.00;61.60;;;;;;5056266;28;20486;-71
2022/08/06 01:28:35;;;;;;;2.90;2.70;;;30.00;61.40;;;;;;5094038;28;20424;-71
2022/08/06 01:31:11;;;;;;;2.30;2.20;;;30.00;61.40;;;;;;5094105;28;20495;-71
2022/08/06 01:33:44;;;;;;;2.60;2.43;;;30.00;61.20;;;;;;5082964;28;20475;-71
2022/08/06 01:36:21;;;;;;;2.83;2.50;;;30.00;61.10;;;;;;5078602;28;20461;-71
2022/08/06 01:39:00;;;;;;;2.27;2.17;;;30.00;60.90;;;;;;5067715;28;20464;-71
2022/08/06 01:41:41;;;;;;;4.63;2.40;;;30.00;60.90;;;;;;5072485;28;20541;-71
2022/08/06 01:44:31;;;;;;;2.73;2.53;;;30.00;60.80;;;;;;5093686;28;20809;-71
2022/08/06 01:47:08;;;;;;;2.20;2.10;;;30.00;60.60;;;;;;5093492;28;20452;-71
2022/08/06 01:49:48;;;;;;;2.50;2.40;;;30.00;60.50;;;;;;5093617;28;20439;-71
2022/08/06 01:52:34;;;;;;;2.40;2.17;;;30.10;60.30;;;;;;5093995;28;20484;-71
2022/08/06 01:55:09;;;;;;;2.20;2.10;;;30.10;60.20;;;;;;5092717;28;20432;-71
2022/08/06 01:57:44;;;;;;;2.30;2.20;;;30.10;60.00;;;;;;5093803;28;20451;-71
2022/08/06 02:00:39;;;;;;;2.77;2.57;;;30.10;59.90;;;;;;5090777;28;20464;-71
2022/08/06 02:03:19;;;;;;;2.87;2.67;;;30.10;59.80;;;;;;5070423;28;20473;-71
2022/08/06 02:05:52;;;;;;;2.10;2.00;;;30.10;59.80;;;;;;5083604;28;20480;-71
2022/08/06 02:08:30;;;;;;;2.53;2.33;;;30.10;59.60;;;;;;5093277;28;20526;-71
2022/08/06 02:11:09;;;;;;;1.93;1.77;;;30.10;59.60;;;;;;5093861;28;20904;-71
2022/08/06 02:13:59;;;;;;;2.30;2.03;;;30.00;59.60;;;;;;5092844;28;20457;-71
2022/08/06 02:16:30;;;;;;;1.77;1.67;;;30.10;59.40;;;;;;5093475;28;20453;-71
2022/08/06 02:19:02;;;;;;;2.40;2.20;;;30.00;59.40;;;;;;5093446;28;20451;-71
2022/08/06 02:21:39;;;;;;;2.07;1.97;;;30.00;59.40;;;;;;5092970;28;20535;-71
2022/08/06 02:24:09;;;;;;;2.00;1.90;;;30.00;59.20;;;;;;5092509;28;20515;-71
2022/08/06 02:26:39;;;;;;;2.17;1.93;;;30.00;59.30;;;;;;5093542;28;20934;-71
2022/08/06 02:29:17;;;;;;;1.93;1.83;;;30.00;59.10;;;;;;5091450;28;20460;-71
2022/08/06 02:31:47;;;;;;;1.90;1.80;;;30.00;59.10;;;;;;5092983;28;20444;-71
2022/08/06 02:34:20;;;;;;;1.70;1.60;;;30.00;59.10;;;;;;5093230;28;20875;-71
2022/08/06 02:36:59;;;;;;;2.50;1.67;;;30.00;59.00;;;;;;5093242;28;20434;-71
2022/08/06 02:39:32;;;;;;;1.70;1.60;;;30.00;59.00;;;;;;5092034;28;20513;-71
2022/08/06 02:42:21;;;;;;;1.90;1.80;;;30.00;58.80;;;;;;5093177;28;20461;-71
2022/08/06 02:44:56;;;;;;;2.03;1.93;;;30.00;58.70;;;;;;5092454;28;20478;-71
2022/08/06 02:47:34;;;;;;;1.77;1.60;;;30.00;58.60;;;;;;5092808;28;20497;-71
2022/08/06 02:50:35;;;;;;;1.70;1.60;;;30.00;58.60;;;;;;5084631;28;20448;-71
2022/08/06 02:53:08;;;;;;;1.97;1.87;;;30.00;58.50;;;;;;5092725;28;20457;-71
2022/08/06 02:55:56;;;;;;;2.10;2.00;;;30.00;58.50;;;;;;5092780;28;20509;-71
2022/08/06 02:58:32;;;;;;;1.73;1.63;;;30.00;58.50;;;;;;5092363;28;20543;-71
2022/08/06 03:01:10;;;;;;;1.60;1.50;;;30.00;58.40;;;;;;5091585;28;20951;-71
2022/08/06 03:03:47;;;;;;;2.57;1.73;;;30.00;58.40;;;;;;5092190;28;20479;-71
2022/08/06 03:06:29;;;;;;;1.70;1.50;;;30.00;58.30;;;;;;5092947;28;20570;-71
2022/08/06 03:09:00;;;;;;;1.67;1.57;;;30.00;58.20;;;;;;5091730;28;20472;-71
2022/08/06 03:11:32;;;;;;;1.63;1.53;;;30.00;58.20;;;;;;5092395;28;20425;-71
2022/08/06 03:14:03;;;;;;;1.43;1.43;;;30.00;58.10;;;;;;5092624;28;20445;-71
2022/08/06 03:16:54;;;;;;;1.87;1.77;;;30.00;58.20;;;;;;5092535;28;20451;-71
2022/08/06 03:19:28;;;;;;;1.90;1.77;;;30.00;58.20;;;;;;5089645;28;20794;-71
2022/08/06 03:22:19;;;;;;;1.73;1.63;;;30.00;58.20;;;;;;5080012;28;20453;-71
2022/08/06 03:25:09;;;;;;;1.63;1.53;;;30.00;58.10;;;;;;5071309;28;20429;-71
2022/08/06 03:27:39;;;;;;;3.97;1.60;;;30.00;58.10;;;;;;5078705;28;20490;-71
2022/08/06 03:30:13;;;;;;;1.83;1.73;;;30.00;58.10;;;;;;5092038;28;20476;-71
2022/08/06 03:33:02;;;;;;;1.73;1.60;;;29.90;58.10;;;;;;5091716;28;20441;-71
2022/08/06 03:35:52;;;;;;;1.83;1.73;;;29.90;58.10;;;;;;5091162;28;21254;-71
2022/08/06 03:38:22;;;;;;;1.90;1.80;;;29.90;58.10;;;;;;5087531;28;20506;-71
2022/08/06 03:40:58;;;;;;;1.77;1.67;;;29.90;58.10;;;;;;5091949;28;20797;-71
2022/08/06 03:43:28;;;;;;;1.30;1.30;;;29.80;58.10;;;;;;5092569;28;20838;-71
2022/08/06 03:46:24;;;;;;;1.57;1.47;;;29.90;58.10;;;;;;5089096;28;20495;-71
2022/08/06 03:48:55;;;;;;;1.70;1.60;;;29.90;58.00;;;;;;5092045;28;20452;-71
2022/08/06 03:51:28;;;;;;;1.50;1.40;;;29.80;58.00;;;;;;5078610;28;20852;-70
2022/08/06 03:54:20;;;;;;;1.77;1.67;;;29.80;58.00;;;;;;5091642;28;20452;-71
2022/08/06 03:57:02;;;;;;;1.70;1.60;;;29.80;57.90;;;;;;5092226;28;20490;-71
2022/08/06 03:59:39;;;;;;;1.50;1.40;;;29.80;57.90;;;;;;5091944;28;20453;-71
2022/08/06 04:02:28;;;;;;;1.83;1.73;;;29.80;57.80;;;;;;5090521;28;20973;-71
2022/08/06 04:05:15;;;;;;;1.83;1.73;;;29.80;57.90;;;;;;5091765;28;20471;-71
2022/08/06 04:07:45;;;;;;;1.80;1.70;;;29.80;57.80;;;;;;5091237;28;20452;-71
2022/08/06 04:10:24;;;;;;;1.90;1.80;;;29.80;57.90;;;;;;5088062;28;20440;-71
2022/08/06 04:13:05;;;;;;;2.00;1.90;;;29.80;57.90;;;;;;5096241;28;20428;-71
2022/08/06 04:15:55;;;;;;;1.97;1.87;;;29.80;57.80;;;;;;5095706;28;20447;-71
2022/08/06 04:18:28;;;;;;;2.00;1.90;;;29.80;57.80;;;;;;5095441;28;20517;-71
2022/08/06 04:21:01;;;;;;;1.43;1.40;;;29.80;57.70;;;;;;5095986;28;20416;-71
2022/08/06 04:23:51;;;;;;;1.50;1.40;;;29.80;57.70;;;;;;5094774;28;20468;-71
2022/08/06 04:26:23;;;;;;;1.43;1.43;;;29.80;57.60;;;;;;5095173;28;20946;-71
2022/08/06 04:28:55;;;;;;;1.73;1.63;;;29.70;57.60;;;;;;5086297;28;20448;-71
2022/08/06 04:31:28;;;;;;;1.50;1.43;;;29.70;57.60;;;;;;5095449;28;20455;-71
2022/08/06 04:34:22;;;;;;;2.07;1.80;;;29.70;57.60;;;;;;5095584;28;20507;-71
2022/08/06 04:36:57;;;;;;;3.10;1.90;;;29.70;57.60;;;;;;5095460;28;20535;-71
2022/08/06 04:39:27;;;;;;;1.60;1.50;;;29.70;57.50;;;;;;5094491;28;20437;-71
2022/08/06 04:42:16;;;;;;;1.90;1.80;;;29.70;57.50;;;;;;5095387;28;20774;-71
2022/08/06 04:44:46;;;;;;;1.60;1.50;;;29.70;57.50;;;;;;5094493;28;20513;-71
2022/08/06 04:47:31;;;;;;;1.60;1.50;;;29.70;57.50;;;;;;5095488;28;20440;-71
2022/08/06 04:50:14;;;;;;;1.27;1.27;;;29.70;57.50;;;;;;5094998;28;20425;-71
2022/08/06 04:52:49;;;;;;;2.63;2.43;;;29.80;57.40;;;;;;5090744;28;20486;-71
2022/08/06 04:55:21;;;;;;;2.97;1.87;;;29.80;57.30;;;;;;5090185;28;20979;-71
2022/08/06 04:58:01;;;;;;;2.80;1.87;;;29.80;57.30;;;;;;5093989;28;20539;-71
2022/08/06 05:00:39;;;;;;;1.80;1.70;;;29.70;57.30;;;;;;5080798;28;20552;-71
2022/08/06 05:03:28;;;;;;;2.00;1.90;;;29.70;57.30;;;;;;5092991;28;20563;-71
2022/08/06 05:06:23;;;;;;;1.70;1.60;;;29.70;57.30;;;;;;5094001;28;20485;-71
2022/08/06 05:08:54;;;;;;;1.67;1.67;;;29.60;57.30;;;;;;5091867;28;20535;-71
2022/08/06 05:11:31;;;;;;;1.83;1.73;;;29.60;57.30;;;;;;5093695;28;20897;-71
2022/08/06 05:14:05;;;;;;;1.80;1.67;;;29.60;57.10;;;;;;5092580;28;20459;-71
2022/08/06 05:16:39;;;;;;;1.80;1.70;;;29.60;57.20;;;;;;5093384;28;20930;-71
2022/08/06 05:19:26;;;;;;;1.47;1.40;;;29.50;57.30;;;;;;5085787;28;20456;-71
2022/08/06 05:21:56;;;;;;;1.83;1.73;;;29.50;56.90;;;;;;5093104;28;20451;-71
2022/08/06 05:24:42;;;;;;;1.53;1.43;;;29.50;56.80;;;;;;5080825;28;20483;-71
2022/08/06 05:27:32;;;;;;;1.57;1.47;;;29.40;56.80;;;;;;5093562;28;20439;-71
2022/08/06 05:30:21;;;;;;;1.73;1.63;;;29.50;57.00;;;;;;5091617;28;20447;-71
2022/08/06 05:32:50;;;;;;;1.90;1.80;;;29.50;57.00;;;;;;5092742;28;20920;-71
2022/08/06 05:35:24;;;;;;;1.80;1.70;;;29.60;57.10;;;;;;5093515;28;20451;-71
2022/08/06 05:38:12;;;;;;;2.17;2.03;;;29.60;56.90;;;;;;5087398;28;20803;-71
2022/08/06 05:40:58;;;;;;;2.00;1.90;;;29.60;56.90;;;;;;5089922;28;20452;-71
2022/08/06 05:43:31;;;;;;;2.00;1.90;;;29.60;56.80;;;;;;5075510;28;20446;-71
2022/08/06 05:46:21;;;;;;;1.50;1.40;;;29.50;56.90;;;;;;5092156;28;20806;-71
2022/08/06 05:48:56;;;;;;;1.83;1.70;;;29.60;56.80;;;;;;5092819;28;20957;-71
2022/08/06 05:51:35;;;;;;;1.40;1.40;;;29.50;56.80;;;;;;5092781;28;20477;-71
2022/08/06 05:54:21;;;;;;;1.60;1.57;;;29.50;56.60;;;;;;5079031;28;20443;-71
2022/08/06 05:56:52;;;;;;;1.60;1.50;;;29.40;56.60;;;;;;5091496;28;20517;-71
2022/08/06 05:59:27;;;;;;;1.37;1.37;;;29.40;56.60;;;;;;5090042;28;20462;-71
2022/08/06 06:02:07;;;;;;;2.00;1.87;;;29.40;56.50;;;;;;5082882;28;20542;-71
2022/08/06 06:04:37;;;;;;;1.57;1.47;;;29.40;56.50;;;;;;5085388;28;20476;-71
2022/08/06 06:07:14;;;;;;;3.07;1.80;;;29.30;56.40;;;;;;5082517;28;20509;-71
2022/08/06 06:10:04;;;;;;;1.90;1.80;;;29.30;56.40;;;;;;5088593;28;20454;-71
2022/08/06 06:12:33;;;;;;;1.60;1.50;;;29.30;56.70;;;;;;5089615;28;20463;-72
2022/08/06 06:15:07;;;;;;;1.80;1.70;;;29.30;56.50;;;;;;5089492;28;20462;-71
2022/08/06 06:18:04;;;;;;;1.53;1.53;;;29.30;56.60;;;;;;5087521;28;20448;-71
2022/08/06 06:20:50;;;;;;;2.40;2.10;;;29.50;56.50;;;;;;5087688;28;20449;-71
2022/08/06 06:23:45;;;;;;;1.70;1.60;;;29.50;56.30;;;;;;5089649;28;20567;-71
2022/08/06 06:26:38;;;;;;;1.80;1.70;;;29.50;56.10;;;;;;5089639;28;20958;-75
2022/08/06 06:29:13;;;;;;;2.10;2.00;;;29.50;56.00;;;;;;5086729;28;20463;-71
2022/08/06 06:31:57;;;;;;;1.70;1.60;;;29.60;55.80;;;;;;5088493;28;20465;-71
2022/08/06 06:34:51;;;;;;;2.60;2.40;;;29.60;55.80;;;;;;5090130;28;20539;-71
2022/08/06 06:37:30;;;;;;;3.60;2.37;;;29.60;55.80;;;;;;5094070;28;20468;-71
2022/08/06 06:40:20;;;;;;;2.53;2.30;;;29.60;55.70;;;;;;5086047;28;20486;-71
2022/08/06 06:42:55;;;;;;;2.17;2.07;;;29.60;55.70;;;;;;5092088;28;20451;-71
2022/08/06 06:45:34;;;;;;;2.40;2.13;;;29.60;55.70;;;;;;5089390;28;20511;-71
2022/08/06 06:48:29;;;;;;;2.50;2.30;;;29.60;55.70;;;;;;5089170;28;20468;-71
2022/08/06 06:51:06;;;;;;;2.10;2.00;;;29.60;55.70;;;;;;5094380;28;20490;-73
2022/08/06 06:53:56;;;;;;;3.40;2.63;;;29.50;55.70;;;;;;5092204;28;20919;-71
2022/08/06 06:56:41;;;;;;;3.47;2.93;;;29.50;55.80;;;;;;5091903;28;20444;-70
2022/08/06 06:59:15;;;;;;;2.30;2.20;;;29.40;55.90;;;;;;5072629;28;20460;-70
2022/08/06 07:01:46;;;;;;;2.07;1.97;;;29.30;56.00;;;;;;5088374;28;20536;-70
2022/08/06 07:04:25;;;;;;;3.37;3.13;;;29.20;55.90;;;;;;5079711;28;20459;-70
2022/08/06 07:06:55;;;;;;;5.57;3.03;;;29.20;55.90;;;;;;5086722;28;20486;-74
2022/08/06 07:09:36;;;;;;;3.63;3.37;;;29.20;55.90;;;;;;5086411;28;20802;-70
2022/08/06 07:12:12;;;;;;;3.20;2.47;;;29.20;55.60;;;;;;5091119;28;20451;-74
2022/08/06 07:14:49;;;;;;;3.07;2.77;;;29.10;55.50;;;;;;5085867;28;20455;-74
2022/08/06 07:17:31;;;;;;;2.60;2.40;;;29.00;55.50;;;;;;5085280;28;20454;-75
2022/08/06 07:20:24;;;;;;;3.80;3.37;;;29.00;55.60;;;;;;5073416;28;20476;-74
2022/08/06 07:22:56;;;;;;;3.00;2.80;;;28.90;55.80;;;;;;5077937;28;20470;-74
2022/08/06 07:25:47;;;;;;;4.30;3.40;;;28.90;55.80;;;;;;5091825;28;20559;-75
2022/08/06 07:28:25;;;;;;;4.60;2.67;;;28.90;55.90;;;;;;5073635;28;20449;-74
2022/08/06 07:30:58;;;;;;;2.77;2.57;;;29.00;55.70;;;;;;5092280;28;20461;-73
2022/08/06 07:33:39;;;;;;;2.87;2.67;;;29.00;55.50;;;;;;5091356;28;20952;-73
2022/08/06 07:36:32;;;;;;;5.20;2.30;;;29.00;56.30;;;;;;5077114;28;20476;-73
2022/08/06 07:39:09;;;;;;;2.70;2.50;;;29.00;56.50;;;;;;5088004;28;20477;-73
2022/08/06 07:41:44;;;;;;;4.77;3.03;;;29.00;56.70;;;;;;5089125;28;20466;-73
2022/08/06 07:44:37;;;;;;;3.90;3.40;;;29.10;56.50;;;;;;5062478;28;20455;-75
2022/08/06 07:47:27;;;;;;;12.97;6.60;;;29.10;57.80;;;;;;5091611;28;20524;-73
2022/08/06 07:50:16;;;;;;;6.03;3.50;;;29.10;59.90;;;;;;5092681;28;20864;-75
2022/08/06 07:52:54;;;;;;;5.47;3.53;;;29.00;59.00;;;;;;5089795;28;20526;-71
2022/08/06 07:55:25;;;;;;;3.63;3.23;;;29.00;59.60;;;;;;5094396;28;21402;-71
2022/08/06 07:58:08;;;;;;;3.20;2.93;;;29.00;57.80;;;;;;5094563;28;20455;-71
2022/08/06 08:00:37;;;;;;;2.90;2.70;;;29.10;57.10;;;;;;5092830;28;21014;-71
2022/08/06 08:06:21;;;;;;;3.53;2.50;;;29.10;56.70;;;;;;5090390;28;20582;-71
2022/08/06 08:08:55;;;;;;;2.87;2.67;;;29.10;56.80;;;;;;5081541;28;20513;-71
2022/08/06 08:11:25;;;;;;;4.70;2.50;;;29.10;56.60;;;;;;5081936;28;20443;-70
2022/08/06 08:14:15;;;;;;;4.57;3.33;;;29.10;56.60;;;;;;5092167;28;20881;-72
2022/08/06 08:16:46;;;;;;;4.17;3.83;;;29.10;56.60;;;;;;5080122;28;20460;-71
2022/08/06 08:19:23;;;;;;;3.30;2.90;;;29.20;56.60;;;;;;5085887;28;20452;-71
2022/08/06 08:21:53;;;;;;;5.77;3.47;;;29.20;56.50;;;;;;5093816;28;21412;-73
2022/08/06 08:24:24;;;;;;;4.03;3.67;;;29.20;56.40;;;;;;5092653;28;20932;-69
2022/08/06 08:26:54;;;;;;;5.43;3.50;;;29.20;56.80;;;;;;5094963;28;20515;-68
2022/08/06 08:29:41;;;;;;;6.40;3.23;;;29.20;57.40;;;;;;5094356;28;20483;-67
2022/08/06 08:32:22;;;;;;;8.83;4.10;;;29.20;57.30;;;;;;5092767;28;20451;-69
2022/08/06 08:34:50;;;;;;;4.17;3.83;;;29.30;57.20;;;;;;5066473;28;20535;-68
2022/08/06 08:37:23;;;;;;;6.33;4.20;;;29.40;57.30;;;;;;5093478;28;20533;-68
2022/08/06 08:39:53;;;;;;;11.43;4.50;;;29.40;57.20;;;;;;5090818;28;20455;-67
2022/08/06 08:42:32;;;;;;;8.80;5.93;;;29.50;57.20;;;;;;5092167;28;20502;-68
2022/08/06 08:45:04;;;;;;;9.00;5.57;;;29.50;57.20;;;;;;5090688;28;20463;-71
2022/08/06 08:47:38;;;;;;;8.00;4.77;;;29.50;57.30;;;;;;5090714;28;20456;-71
2022/08/06 08:50:23;;;;;;;6.33;3.27;;;29.40;57.40;;;;;;5091854;28;20843;-71
2022/08/06 08:52:59;;;;;;;7.37;4.23;;;29.30;57.10;;;;;;5092981;28;20475;-71
2022/08/06 08:55:30;;;;;;;4.53;3.57;;;29.30;57.20;;;;;;5092644;28;20436;-71
2022/08/06 08:58:18;;;;;;;4.57;3.13;;;29.20;57.30;;;;;;5091015;28;20459;-71
2022/08/06 09:01:08;;;;;;;3.53;3.10;;;29.20;57.10;;;;;;5090234;28;20425;-71
2022/08/06 09:03:57;;;;;;;3.97;3.47;;;29.20;57.20;;;;;;5091846;28;20433;-71
2022/08/06 09:06:29;;;;;;;3.93;3.63;;;29.20;57.20;;;;;;5091299;28;20487;-72
2022/08/06 09:09:06;;;;;;;3.30;3.00;;;29.10;57.30;;;;;;5080448;28;20445;-71
2022/08/06 09:11:44;;;;;;;4.03;3.63;;;29.20;57.10;;;;;;5072972;28;20520;-72
2022/08/06 09:14:33;;;;;;;3.47;3.17;;;29.20;57.40;;;;;;5072586;28;20453;-71
2022/08/06 09:17:02;;;;;;;5.20;3.70;;;29.20;57.20;;;;;;5072343;28;20497;-71
2022/08/06 09:19:39;;;;;;;3.17;2.97;;;29.20;57.40;;;;;;5081728;28;20449;-71
2022/08/06 09:22:10;;;;;;;4.33;3.30;;;29.20;57.10;;;;;;5076548;28;20451;-71
2022/08/06 09:24:39;;;;;;;3.77;3.50;;;29.20;57.30;;;;;;5092562;28;20432;-71
2022/08/06 09:27:10;;;;;;;4.00;3.67;;;29.30;57.20;;;;;;5093712;28;20802;-71
2022/08/06 09:30:00;;;;;;;3.70;3.30;;;29.30;57.10;;;;;;5093461;28;20524;-72
2022/08/06 09:32:49;;;;;;;3.23;3.00;;;29.30;57.40;;;;;;5093395;28;20456;-71
2022/08/06 09:35:25;;;;;;;4.53;3.73;;;29.30;57.30;;;;;;5093389;28;20463;-71
2022/08/06 09:38:13;;;;;;;3.13;2.93;;;29.20;57.30;;;;;;5092757;28;20569;-71
2022/08/06 09:41:08;;;;;;;3.37;3.17;;;29.30;57.30;;;;;;5085781;28;20454;-71
2022/08/06 09:43:46;;;;;;;3.20;2.90;;;29.30;57.40;;;;;;5072201;28;20470;-71
2022/08/06 09:46:39;;;;;;;3.67;3.37;;;29.30;57.10;;;;;;5083882;28;20466;-71
2022/08/06 09:49:09;;;;;;;4.23;3.40;;;29.30;57.30;;;;;;5092794;28;20536;-71
2022/08/06 09:52:16;;;;;;;3.30;3.10;;;29.30;57.10;;;;;;5092073;28;21081;-71
2022/08/06 09:54:46;;;;;;;4.37;3.50;;;29.30;57.10;;;;;;5090707;28;20895;-71
2022/08/06 09:57:23;;;;;;;3.07;2.87;;;29.30;57.10;;;;;;5087853;28;20459;-71
2022/08/06 10:00:07;;;;;;;3.47;3.17;;;29.30;57.10;;;;;;5090921;28;20973;-71
2022/08/06 10:02:46;;;;;;;3.60;3.40;;;29.20;57.10;;;;;;5089108;28;20455;-71
2022/08/06 10:05:20;;;;;;;3.53;3.23;;;29.30;56.90;;;;;;5091068;28;20527;-71
2022/08/06 10:08:04;;;;;;;3.47;3.27;;;29.30;57.00;;;;;;5091348;28;20479;-71
2022/08/06 10:10:44;;;;;;;3.77;3.47;;;29.30;57.10;;;;;;5090132;28;20474;-71
2022/08/06 10:13:20;;;;;;;4.13;3.93;;;29.30;56.90;;;;;;5091268;28;20452;-71
2022/08/06 10:15:53;;;;;;;3.87;3.57;;;29.30;57.00;;;;;;5086951;28;20488;-71
2022/08/06 10:18:38;;;;;;;3.80;3.50;;;29.30;57.00;;;;;;5071412;28;20428;-71
2022/08/06 10:21:27;;;;;;;3.83;3.63;;;29.30;57.10;;;;;;5087897;28;20456;-71
2022/08/06 10:24:11;;;;;;;3.43;3.23;;;29.30;56.90;;;;;;5090961;28;20511;-71
2022/08/06 10:26:42;;;;;;;3.50;3.20;;;29.30;56.90;;;;;;5091700;28;20500;-72
2022/08/06 10:29:15;;;;;;;3.70;3.50;;;29.30;57.10;;;;;;5091221;28;20521;-72
2022/08/06 10:31:47;;;;;;;3.10;2.90;;;29.30;56.80;;;;;;5092427;28;20946;-71
2022/08/06 10:34:27;;;;;;;3.37;3.07;;;29.30;57.00;;;;;;5091747;28;20436;-71
2022/08/06 10:37:02;;;;;;;3.20;3.00;;;29.30;56.90;;;;;;5092049;28;20960;-71
2022/08/06 10:39:43;;;;;;;3.70;3.40;;;29.40;56.80;;;;;;5091570;28;20459;-72
2022/08/06 10:42:32;;;;;;;3.40;3.20;;;29.30;56.80;;;;;;5091622;28;20548;-71
2022/08/06 10:45:01;;;;;;;4.30;4.00;;;29.30;56.80;;;;;;5091584;28;20865;-71
2022/08/06 10:47:43;;;;;;;4.33;4.00;;;29.30;56.70;;;;;;5092429;28;20466;-71
2022/08/06 10:50:33;;;;;;;3.50;3.30;;;29.40;56.80;;;;;;5092181;28;20878;-71
2022/08/06 10:53:19;;;;;;;3.13;3.03;;;29.40;56.70;;;;;;5090699;28;20472;-71
2022/08/06 10:56:12;;;;;;;3.40;3.20;;;29.30;56.70;;;;;;5091108;28;20448;-71
2022/08/06 10:58:45;;;;;;;4.07;3.77;;;29.30;56.80;;;;;;5092148;28;20530;-72
2022/08/06 11:01:22;;;;;;;4.03;3.63;;;29.30;56.80;;;;;;5091456;28;20512;-71
2022/08/06 11:04:13;;;;;;;3.80;3.60;;;29.30;56.70;;;;;;5090702;28;20820;-71
2022/08/06 11:07:09;;;;;;;4.00;3.80;;;29.40;56.60;;;;;;5091458;28;20892;-71
2022/08/06 11:10:01;;;;;;;3.03;2.93;;;29.40;56.50;;;;;;5090577;28;20526;-72
2022/08/06 11:12:45;;;;;;;3.80;3.60;;;29.40;56.50;;;;;;5091343;28;20543;-71
2022/08/06 11:15:18;;;;;;;3.97;3.77;;;29.40;56.60;;;;;;5091186;28;20927;-71
2022/08/06 11:17:52;;;;;;;3.53;3.33;;;29.40;56.50;;;;;;5091915;28;20447;-71
2022/08/06 11:20:43;;;;;;;3.80;3.53;;;29.40;56.50;;;;;;5075386;28;20461;-71
2022/08/06 11:23:27;;;;;;;4.37;4.07;;;29.40;56.50;;;;;;5086378;28;20448;-71
2022/08/06 11:26:34;;;;;;;3.60;3.40;;;29.40;56.60;;;;;;5091047;28;20465;-71
2022/08/06 11:29:07;;;;;;;3.70;3.50;;;29.40;56.50;;;;;;5073007;28;20447;-71
2022/08/06 11:31:40;;;;;;;3.90;3.60;;;29.30;56.50;;;;;;5090884;28;20452;-71
2022/08/06 11:34:43;;;;;;;4.47;4.17;;;29.30;56.70;;;;;;5090931;28;20433;-71
2022/08/06 11:37:44;;;;;;;4.10;3.90;;;29.30;56.60;;;;;;5091834;28;20445;-72
2022/08/06 11:40:58;;;;;;;3.70;3.50;;;29.30;56.80;;;;;;5090616;28;20433;-71
2022/08/06 11:44:03;;;;;;;3.20;3.00;;;29.30;56.60;;;;;;5070323;28;20423;-71
2022/08/06 11:46:33;;;;;;;3.67;3.37;;;29.40;56.50;;;;;;5070724;28;20498;-72
2022/08/06 11:49:20;;;;;;;3.53;3.33;;;29.40;56.60;;;;;;5071149;28;20879;-71
2022/08/06 11:51:51;;;;;;;4.03;3.67;;;29.40;56.50;;;;;;5078466;28;20527;-72
2022/08/06 11:54:33;;;;;;;5.00;4.70;;;29.40;56.50;;;;;;5090108;28;20801;-71
2022/08/06 11:57:26;;;;;;;3.27;3.07;;;29.50;55.90;;;;;;5091272;28;20956;-72
2022/08/06 12:00:16;;;;;;;3.10;3.00;;;29.60;56.40;;;;;;5090130;28;20817;-71
2022/08/06 12:02:56;;;;;;;3.00;2.90;;;29.60;56.30;;;;;;5090656;28;20443;-71
2022/08/06 12:05:45;;;;;;;5.17;4.87;;;29.50;56.40;;;;;;5090582;28;20489;-72
2022/08/06 12:08:27;;;;;;;3.43;3.23;;;29.60;55.60;;;;;;5090041;28;20468;-71
2022/08/06 12:11:38;;;;;;;3.60;3.30;;;29.60;56.30;;;;;;5090522;28;20446;-71
2022/08/06 12:14:41;;;;;;;3.87;3.60;;;29.50;56.20;;;;;;5090280;28;20812;-71
2022/08/06 12:17:14;;;;;;;3.53;3.33;;;29.50;56.20;;;;;;5087167;28;20459;-72
2022/08/06 12:20:02;;;;;;;3.10;2.90;;;29.50;56.30;;;;;;5091324;28;20553;-71
2022/08/06 12:22:32;;;;;;;3.27;3.13;;;29.50;56.20;;;;;;5086607;28;20447;-71
2022/08/06 12:25:04;;;;;;;2.80;2.70;;;29.50;56.20;;;;;;5089554;28;20460;-71
2022/08/06 12:27:40;;;;;;;3.30;3.20;;;29.50;56.20;;;;;;5091135;28;20529;-71
2022/08/06 12:30:23;;;;;;;3.20;3.00;;;29.50;56.20;;;;;;5087901;28;20469;-71
2022/08/06 12:33:07;;;;;;;3.07;2.87;;;29.50;56.20;;;;;;5073075;28;20802;-71
2022/08/06 12:35:50;;;;;;;2.60;2.50;;;29.50;56.10;;;;;;5074313;28;20520;-71
2022/08/06 12:38:18;;;;;;;3.30;3.10;;;29.40;56.20;;;;;;5073082;28;20833;-71
2022/08/06 12:40:57;;;;;;;3.00;2.90;;;29.50;56.20;;;;;;5090620;28;20491;-71
2022/08/06 12:43:27;;;;;;;2.97;2.87;;;29.50;56.10;;;;;;5094795;28;20461;-71
2022/08/06 12:46:15;;;;;;;3.30;3.00;;;29.50;56.00;;;;;;5080847;28;20491;-71
2022/08/06 12:48:49;;;;;;;2.80;2.70;;;29.50;56.00;;;;;;5094719;28;20945;-72
2022/08/06 12:51:19;;;;;;;3.40;3.20;;;29.50;56.00;;;;;;5093647;28;20483;-71
2022/08/06 12:53:57;;;;;;;3.03;2.87;;;29.50;56.10;;;;;;5093364;28;20893;-71
2022/08/06 12:56:28;;;;;;;2.70;2.60;;;29.40;56.10;;;;;;5093519;28;20528;-71
2022/08/06 12:59:03;;;;;;;2.87;2.73;;;29.40;56.00;;;;;;5093030;28;20432;-71
2022/08/06 13:01:37;;;;;;;3.27;3.10;;;29.40;56.00;;;;;;5093574;28;20467;-71
2022/08/06 13:04:26;;;;;;;3.23;3.03;;;29.40;56.30;;;;;;5093642;28;20443;-72
2022/08/06 13:07:03;;;;;;;2.50;2.40;;;29.40;56.20;;;;;;5092001;28;20484;-71
2022/08/06 13:09:42;;;;;;;2.63;2.53;;;29.50;56.00;;;;;;5086670;28;20443;-71
2022/08/06 13:12:31;;;;;;;3.20;3.03;;;29.50;55.90;;;;;;5093769;28;20919;-71
2022/08/06 13:15:19;;;;;;;2.80;2.70;;;29.50;55.90;;;;;;5093030;28;20451;-71
2022/08/06 13:18:11;;;;;;;3.17;2.97;;;29.60;55.80;;;;;;5093141;28;20444;-71
2022/08/06 13:21:01;;;;;;;2.40;2.30;;;29.60;56.00;;;;;;5091350;28;20554;-71
2022/08/06 13:23:46;;;;;;;2.70;2.60;;;29.60;55.70;;;;;;5092693;28;20517;-71
2022/08/06 13:26:15;;;;;;;3.00;2.90;;;29.60;55.80;;;;;;5093728;28;20837;-71
2022/08/06 13:29:11;;;;;;;4.97;4.67;;;29.50;55.80;;;;;;5092884;28;21012;-71
2022/08/06 13:32:06;;;;;;;2.37;2.27;;;29.50;54.90;;;;;;5092795;28;20446;-71
2022/08/06 13:34:57;;;;;;;2.67;2.47;;;29.60;55.60;;;;;;5092898;28;21058;-71
2022/08/06 13:37:43;;;;;;;3.20;3.03;;;29.60;55.70;;;;;;5092463;28;20496;-71
2022/08/06 13:40:43;;;;;;;3.30;3.10;;;29.50;55.80;;;;;;5092186;28;20452;-71
2022/08/06 13:43:18;;;;;;;2.90;2.70;;;29.60;55.80;;;;;;5092622;28;20859;-71
2022/08/06 13:46:08;;;;;;;2.53;2.43;;;29.60;55.90;;;;;;5091295;28;20466;-71
2022/08/06 13:48:43;;;;;;;2.90;2.80;;;29.60;55.80;;;;;;5092325;28;20482;-71
2022/08/06 13:51:16;;;;;;;2.40;2.30;;;29.60;55.80;;;;;;5092953;28;20531;-71
2022/08/06 13:53:56;;;;;;;3.13;3.03;;;29.50;55.90;;;;;;5074508;28;20496;-71
2022/08/06 13:56:26;;;;;;;3.33;3.10;;;29.50;55.80;;;;;;5092887;28;20448;-71
2022/08/06 13:58:59;;;;;;;2.53;2.43;;;29.50;55.90;;;;;;5085901;28;20448;-71